Flight Track Log - Related Links

Times and Time Zones

All times are in EDT time to prevent confusion due to time zone crossing. See the DAL1981 flight status page for this flight to view local times or setup timezone preferences in your user account.

Time Position Orientation Groundspeed Altitude Reporting Facility
EDT Latitude Longitude Course Direction KTS MPH feet Rate Location/Type
Wed 03:53:13 PM 38.6539 -121.5642 78° East 174 200 1,600  Level Oakland Center
Wed 03:53:31 PM 38.6500 -121.5500 109° East 187 215 2,300 1,769 Climbing Northern Cal TRACON
Wed 03:54:31 PM 38.6167 -121.4833 123° Southeast 214 246 3,900 1,880 Climbing Northern Cal TRACON
Wed 03:55:00 PM 38.4993 -121.2383 80° East  Level FlightAware Approximate
Wed 03:56:00 PM 38.5383 -121.0755 76° East  Level FlightAware Approximate
Wed 03:56:17 PM 38.6328 -121.3358 82° East 274 315 7,500  Level Oakland Center
Wed 03:57:00 PM 38.5681 -120.9090 78° East  Level FlightAware Approximate
Wed 03:57:19 PM 38.6436 -121.2119 84° East 295 339 10,400  Level Oakland Center
Wed 03:58:00 PM 38.5959 -120.7418 78° East  Level FlightAware Approximate
Wed 03:58:20 PM 38.6522 -121.0956 85° East 336 387 11,300  Level Oakland Center
Wed 03:59:22 PM 38.6631 -120.9539 84° East 390 449 12,900 2,177 Climbing Oakland Center
Wed 04:00:24 PM 38.6744 -120.8100 84° East 403 464 15,800 2,000 Climbing Oakland Center
Wed 04:01:25 PM 38.6856 -120.6631 84° East 412 474 17,000 1,463 Climbing Oakland Center
Wed 04:02:27 PM 38.6972 -120.5067 84° East 436 502 18,800 1,659 Climbing Oakland Center
Wed 04:03:28 PM 38.7597 -120.3653 60° Northeast 456 525 20,400 2,634 Climbing Oakland Center
Wed 04:04:30 PM 38.8364 -120.2017 59° Northeast 446 513 24,200 2,780 Climbing Oakland Center
Wed 04:05:31 PM 38.8936 -120.0803 59° Northeast 402 463 26,100 1,561 Climbing Oakland Center
Wed 04:06:33 PM 38.9506 -119.9569 59° Northeast 406 467 27,400 1,415 Climbing Oakland Center
Wed 04:07:34 PM 39.0081 -119.8308 60° Northeast 409 471 29,000 1,268 Climbing Oakland Center
Wed 04:08:36 PM 39.0661 -119.7058 59° Northeast 409 471 30,000 829 Climbing Oakland Center
Wed 04:09:37 PM 39.1247 -119.5778 59° Northeast 412 474 30,700 683 Climbing Oakland Center
Wed 04:10:39 PM 39.1853 -119.4478 59° Northeast 421 484 31,400 537 Climbing Oakland Center
Wed 04:11:40 PM 39.2478 -119.3108 59° Northeast 437 503 31,800 390 Climbing Oakland Center
Wed 04:12:42 PM 39.3242 -119.1417 60° Northeast 452 520 32,200 390 Climbing Oakland Center
Wed 04:13:43 PM 39.3925 -118.9922 59° Northeast 467 537 32,600 344 Climbing Oakland Center
Wed 04:14:44 PM 39.4606 -118.8408 60° Northeast 482 555 32,900 341 Climbing Oakland Center
Wed 04:15:46 PM 39.5339 -118.6803 59° Northeast 499 574 33,300 488 Climbing Oakland Center
Wed 04:16:47 PM 39.6044 -118.5203 60° Northeast 505 581 33,900 590 Climbing Oakland Center
Wed 04:17:48 PM 39.6744 -118.3603 60° Northeast 508 585 34,500 537 Climbing Oakland Center
Wed 04:18:50 PM 39.7444 -118.2006 60° Northeast 508 585 35,000 244 Climbing Oakland Center
Wed 04:19:51 PM 39.8158 -118.0383 60° Northeast 515 593 35,000  Level Oakland Center
Wed 04:20:53 PM 39.8881 -117.8708 61° Northeast 526 605 35,000  Level Oakland Center
Wed 04:21:54 PM 39.9597 -117.7069 60° Northeast 522 601 35,000 -49 Level Oakland Center
Wed 04:22:55 PM 40.0317 -117.5411 60° Northeast 524 603 34,900  Descending Oakland Center
Wed 04:23:57 PM 40.1025 -117.3728 61° Northeast 528 608 35,000 58 Climbing Oakland Center
Wed 04:24:38 PM 40.1556 -117.2497 61° Northeast 529 609 35,000  Level Salt Lake Center
Wed 04:25:39 PM 40.2353 -117.0622 61° Northeast 530 610 35,000  Level Salt Lake Center
Wed 04:26:41 PM 40.3028 -116.9014 61° Northeast 532 612 35,000  Level Salt Lake Center
Wed 04:27:43 PM 40.3811 -116.7142 61° Northeast 545 627 35,000  Level Salt Lake Center
Wed 04:28:44 PM 40.4494 -116.5547 61° Northeast 532 612 35,000  Level Salt Lake Center
Wed 04:29:46 PM 40.5292 -116.3633 61° Northeast 537 618 35,000  Level Salt Lake Center
Wed 04:30:48 PM 40.5964 -116.1975 62° Northeast 539 620 35,000  Level Salt Lake Center
Wed 04:31:49 PM 40.6775 -116.0042 61° Northeast 542 624 35,000  Level Salt Lake Center
Wed 04:32:51 PM 40.7458 -115.8375 62° Northeast 540 621 35,000  Level Salt Lake Center
Wed 04:33:53 PM 40.8119 -115.6717 62° Northeast 537 618 35,000  Level Salt Lake Center
Wed 04:34:54 PM 40.8914 -115.4769 62° Northeast 540 621 35,000 49 Level Salt Lake Center
Wed 04:35:56 PM 40.9575 -115.3086 62° Northeast 540 621 35,100  Climbing Salt Lake Center
Wed 04:36:58 PM 41.0344 -115.1131 62° Northeast 538 619 35,000 -49 Descending Salt Lake Center
Wed 04:37:59 PM 41.1014 -114.9467 62° Northeast 537 618 35,000  Level Salt Lake Center
Wed 04:39:01 PM 41.1700 -114.7719 62° Northeast 538 619 35,000  Level Salt Lake Center
Wed 04:40:02 PM 41.2386 -114.5953 63° Northeast 539 620 35,000  Level Salt Lake Center
Wed 04:41:04 PM 41.3217 -114.3803 63° Northeast 544 626 35,000  Level Salt Lake Center
Wed 04:42:06 PM 41.3903 -114.2011 63° Northeast 545 627 35,000  Level Salt Lake Center
Wed 04:43:07 PM 41.4594 -114.0217 63° Northeast 545 627 35,000  Level Salt Lake Center
Wed 04:44:09 PM 41.5289 -113.8411 63° Northeast 546 628 35,000  Level Salt Lake Center
Wed 04:45:11 PM 41.5978 -113.6606 63° Northeast 546 628 35,000  Level Salt Lake Center
Wed 04:46:12 PM 41.6656 -113.4803 63° Northeast 543 625 35,000 -49 Level Salt Lake Center
Wed 04:47:14 PM 41.7322 -113.3017 63° Northeast 537 618 34,900  Descending Salt Lake Center
Wed 04:48:15 PM 41.8003 -113.1206 63° Northeast 543 625 35,000 49 Climbing Salt Lake Center
Wed 04:49:17 PM 41.8806 -112.9036 64° Northeast 542 624 35,000  Level Salt Lake Center
Wed 04:50:19 PM 41.9469 -112.7206 64° Northeast 543 625 35,000  Level Salt Lake Center
Wed 04:51:20 PM 42.0139 -112.5369 64° Northeast 545 627 35,000  Level Salt Lake Center
Wed 04:52:22 PM 42.0808 -112.3528 64° Northeast 546 628 35,000  Level Salt Lake Center
Wed 04:53:24 PM 42.1469 -112.1686 64° Northeast 547 629 35,000  Level Salt Lake Center
Wed 04:54:25 PM 42.2133 -111.9819 64° Northeast 549 632 35,000  Level Salt Lake Center
Wed 04:55:29 PM 42.2800 -111.7958 64° Northeast 550 633 35,000  Level Salt Lake Center
Wed 04:56:29 PM 42.3464 -111.6072 64° Northeast 554 638 35,000  Level Salt Lake Center
Wed 04:57:30 PM 42.4122 -111.4206 64° Northeast 551 634 35,000  Level Salt Lake Center
Wed 04:58:32 PM 42.4894 -111.1961 65° Northeast 548 631 35,000  Level Salt Lake Center
Wed 04:59:34 PM 42.5536 -111.0103 65° Northeast 547 629 35,000  Level Salt Lake Center
Wed 05:00:35 PM 42.6206 -110.8133 65° Northeast 543 625 35,000  Level Salt Lake Center
Wed 05:01:37 PM 42.6825 -110.6344 65° Northeast 545 627 35,000  Level Salt Lake Center
Wed 05:02:39 PM 42.7478 -110.4425 65° Northeast 548 631 35,000  Level Salt Lake Center
Wed 05:03:40 PM 42.8075 -110.2642 65° Northeast 544 626 35,000  Level Salt Lake Center
Wed 05:04:42 PM 42.8778 -110.0539 65° Northeast 546 628 35,000  Level Salt Lake Center
Wed 05:05:44 PM 42.9439 -109.8539 66° East 544 626 35,000  Level Salt Lake Center
Wed 05:06:45 PM 43.0081 -109.6578 66° East 543 625 35,000 -49 Level Salt Lake Center
Wed 05:07:47 PM 43.0675 -109.4767 66° East 544 626 34,900  Descending Salt Lake Center
Wed 05:08:49 PM 43.1258 -109.2942 66° East 548 631 35,000 49 Climbing Salt Lake Center
Wed 05:09:50 PM 43.1947 -109.0814 66° East 548 631 35,000  Level Salt Lake Center
Wed 05:10:52 PM 43.2528 -108.8989 66° East 547 629 35,000  Level Salt Lake Center
Wed 05:11:54 PM 43.3203 -108.6875 66° East 543 625 35,000  Level Salt Lake Center
Wed 05:12:55 PM 43.3772 -108.5075 66° East 539 620 35,000  Level Salt Lake Center
Wed 05:13:57 PM 43.4431 -108.2956 67° East 540 621 35,000  Level Salt Lake Center
Wed 05:14:59 PM 43.4986 -108.1139 67° East 539 620 35,000  Level Salt Lake Center
Wed 05:16:00 PM 43.5542 -107.9308 67° East 541 623 35,000  Level Salt Lake Center
Wed 05:17:02 PM 43.6206 -107.7142 67° East 550 633 35,000  Level Salt Lake Center
Wed 05:18:04 PM 43.6775 -107.5278 67° East 552 635 35,000 48 Level Salt Lake Center
Wed 05:19:06 PM 43.7422 -107.3078 68° East 555 639 35,100 50 Climbing Salt Lake Center
Wed 05:20:04 PM 43.8000 -107.1181 67° East 554 638 35,100 -50 Level Denver Center
Wed 05:21:06 PM 43.8553 -106.9317 68° East 550 633 35,000 -97 Descending Denver Center
Wed 05:22:08 PM 43.9144 -106.7275 68° East 548 631 34,900  Descending Denver Center
Wed 05:23:10 PM 43.9792 -106.5092 68° East 548 631 35,000 47 Climbing Denver Center
Wed 05:24:15 PM 44.0325 -106.3061 70° East 549 632 35,000  Level Salt Lake Center
Wed 05:25:14 PM 44.0864 -106.0969 70° East 548 631 35,000  Level Denver Center
Wed 05:26:16 PM 44.1333 -105.9075 71° East 542 624 35,000  Level Denver Center
Wed 05:27:18 PM 44.1883 -105.6836 71° East 545 627 35,000  Level Denver Center
Wed 05:28:20 PM 44.2350 -105.4931 71° East 544 626 35,000  Level Denver Center
Wed 05:29:22 PM 44.2811 -105.3019 71° East 543 625 35,000  Level Denver Center
Wed 05:30:24 PM 44.3347 -105.0786 71° East 543 625 35,000  Level Denver Center
Wed 05:31:26 PM 44.3806 -104.8864 71° East 543 625 35,000  Level Denver Center
Wed 05:32:28 PM 44.4325 -104.6658 72° East 538 619 35,000  Level Denver Center
Wed 05:33:30 PM 44.4767 -104.4769 72° East 534 615 35,000  Level Denver Center
Wed 05:34:32 PM 44.5278 -104.2531 72° East 539 620 35,000  Level Denver Center
Wed 05:35:34 PM 44.5719 -104.0642 72° East 535 616 35,000  Level Denver Center
Wed 05:36:36 PM 44.6228 -103.8444 72° East 530 610 35,000  Level Denver Center
Wed 05:37:38 PM 44.6644 -103.6569 73° East 526 605 35,000  Level Denver Center
Wed 05:38:40 PM 44.7061 -103.4644 73° East 520 598 35,000  Level Denver Center
Wed 05:39:42 PM 44.7506 -103.2678 72° East 526 605 35,000  Level Denver Center
Wed 05:40:44 PM 44.8011 -103.0306 73° East 527 606 35,000  Level Denver Center
Wed 05:41:46 PM 44.8453 -102.8339 72° East 527 606 35,000  Level Denver Center
Wed 05:42:48 PM 44.8872 -102.6350 73° East 528 608 35,000  Level Denver Center
Wed 05:43:12 PM 44.9039 -102.5561 73° East 529 609 35,000  Level Minneapolis Center
Wed 05:44:14 PM 44.9464 -102.3592 73° East 526 605 35,000  Level Minneapolis Center
Wed 05:45:16 PM 44.9861 -102.1633 74° East 522 601 35,000  Level Minneapolis Center
Wed 05:46:18 PM 45.0275 -101.9689 73° East 518 596 35,000  Level Minneapolis Center
Wed 05:47:20 PM 45.0622 -101.7728 76° East 516 594 35,000  Level Minneapolis Center
Wed 05:48:22 PM 45.0675 -101.5294 88° East 520 598 35,000  Level Minneapolis Center
Wed 05:49:24 PM 45.0522 -101.3278 96° East 517 595 35,000  Level Minneapolis Center
Wed 05:50:26 PM 45.0389 -101.1267 95° East 516 594 35,000  Level Minneapolis Center
Wed 05:51:28 PM 45.0253 -100.9269 95° East 514 592 35,000  Level Minneapolis Center
Wed 05:52:29 PM 45.0108 -100.7294 96° East 511 588 35,000  Level Minneapolis Center
Wed 05:53:31 PM 44.9975 -100.5300 95° East 511 588 35,000  Level Minneapolis Center
Wed 05:54:33 PM 44.9786 -100.2950 96° East 508 585 35,000  Level Minneapolis Center
Wed 05:55:35 PM 44.9625 -100.0961 96° East 513 590 35,000  Level Minneapolis Center
Wed 05:56:37 PM 44.9469 -99.8994 96° East 522 601 35,000  Level Minneapolis Center
Wed 05:57:39 PM 44.9328 -99.7033 96° East 516 594 35,000  Level Minneapolis Center
Wed 05:58:41 PM 44.9133 -99.4686 97° East 509 586 35,000  Level Minneapolis Center
Wed 05:59:43 PM 44.8972 -99.2753 97° East 505 581 35,000  Level Minneapolis Center
Wed 06:00:46 PM 44.8806 -99.0822 97° East 501 577 35,000 48 Level Minneapolis Center
Wed 06:01:48 PM 44.8639 -98.8931 97° East 495 570 35,100 581 Climbing Minneapolis Center
Wed 06:02:50 PM 44.8467 -98.7025 97° East 493 567 36,200 871 Climbing Minneapolis Center
Wed 06:03:52 PM 44.8300 -98.5150 97° East 489 563 36,900 387 Climbing Minneapolis Center
Wed 06:04:54 PM 44.8092 -98.2936 97° East 482 555 37,000 48 Climbing Minneapolis Center
Wed 06:05:56 PM 44.7911 -98.1003 97° East 493 567 37,000  Level Minneapolis Center
Wed 06:06:58 PM 44.7739 -97.9081 97° East 495 570 37,000  Level Minneapolis Center
Wed 06:08:00 PM 44.7544 -97.7178 98° East 493 567 37,000  Level Minneapolis Center
Wed 06:09:02 PM 44.7339 -97.5261 99° East 495 570 37,000  Level Minneapolis Center
Wed 06:10:04 PM 44.7150 -97.3339 98° East 494 568 37,000 -435 Level Minneapolis Center
Wed 06:11:06 PM 44.6919 -97.1064 98° East 490 564 36,100 -919 Descending Minneapolis Center
Wed 06:12:08 PM 44.6714 -96.9181 99° East 486 559 35,100 -919 Descending Minneapolis Center
Wed 06:13:10 PM 44.6694 -96.7261 91° East 489 563 34,200 -919 Descending Minneapolis Center
Wed 06:14:12 PM 44.6692 -96.5389 90° East 482 555 33,200 -968 Descending Minneapolis Center
Wed 06:15:14 PM 44.6692 -96.3478 90° East 484 557 32,200 -968 Descending Minneapolis Center
Wed 06:16:16 PM 44.6644 -96.1583 92° East 484 557 31,200 -581 Descending Minneapolis Center
Wed 06:17:18 PM 44.5917 -95.9981 122° Southeast 485 558 31,000 -97 Descending Minneapolis Center
Wed 06:18:20 PM 44.4494 -95.8861 151° Southeast 483 556 31,000 -97 Level Minneapolis Center
Wed 06:19:22 PM 44.3339 -95.7867 148° Southeast 486 559 30,800 -581 Descending Minneapolis Center
Wed 06:20:24 PM 44.2742 -95.6211 117° Southeast 486 559 29,800 -968 Descending Minneapolis Center
Wed 06:21:26 PM 44.2986 -95.4447 79° East 470 541 28,800 -968 Descending Minneapolis Center
Wed 06:22:28 PM 44.3536 -95.2764 65° Northeast 476 548 27,800 -1,016 Descending Minneapolis Center
Wed 06:23:30 PM 44.4075 -95.1128 65° Northeast 468 539 26,700 -2,323 Descending Minneapolis Center
Wed 06:24:32 PM 44.4533 -94.9694 66° East 417 480 23,000 -2,903 Descending Minneapolis Center
Wed 06:25:34 PM 44.5094 -94.7978 65° Northeast 407 468 20,700 -2,177 Descending Minneapolis Center
Wed 06:26:36 PM 44.5547 -94.6564 66° East 401 461 18,500 -2,129 Descending Minneapolis Center
Wed 06:27:38 PM 44.5992 -94.5144 66° East 392 451 16,300 -2,226 Descending Minneapolis Center
Wed 06:28:40 PM 44.6403 -94.3878 65° Northeast 358 412 13,900 -1,839 Descending Minneapolis Center
Wed 06:29:42 PM 44.6686 -94.2656 72° East 327 376 12,500 -1,355 Descending Minneapolis Center
Wed 06:30:44 PM 44.6942 -94.1536 72° East 304 350 11,100 -726 Descending Minneapolis Center
Wed 06:31:46 PM 44.7181 -94.0456 73° East 293 337 11,000 -48 Descending Minneapolis Center
Wed 06:32:48 PM 44.7472 -93.9156 72° East 291 335 11,000  Level Minneapolis Center
Wed 06:33:50 PM 44.7719 -93.8061 72° East 293 337 11,000 -48 Level Minneapolis Center
Wed 06:34:52 PM 44.7958 -93.6969 73° East 293 337 10,900 -484 Descending Minneapolis Center
Wed 06:35:54 PM 44.8206 -93.5872 72° East 293 337 10,000 -919 Descending Minneapolis Center
Wed 06:36:56 PM 44.8442 -93.4775 73° East 292 336 9,000 -871 Descending Minneapolis Center
Wed 06:37:58 PM 44.8644 -93.3742 74° East 274 315 8,200 -677 Descending Minneapolis Center
Wed 06:39:00 PM 44.7953 -93.3239 153° Southeast 261 300 7,600 -919 Descending Minneapolis Center
Wed 06:40:02 PM 44.7258 -93.3247 180° South 258 297 6,300 -1,306 Descending Minneapolis Center
Wed 06:41:04 PM 44.6836 -93.2719 138° Southeast 235 270 4,900 -1,306 Descending Minneapolis Center
Wed 06:42:06 PM 44.7136 -93.2125 55° Northeast 181 208 3,600 -1,258 Descending Minneapolis Center

Login

Don't have an account? Register now (free) for customized features, flight alerts, and more!